罗盘
风向 的 风向 180° Edmonton / Cooking Lake Airport 10/28
风: 4 kt, 2 beaufort

1 kt

4 kt
改变
0 6.000 12.000 18.000 24.000 30.000
SCT 18.000 ft
BKN 25.000 ft
METAR CYEG 291100Z 18004KT 20SM SCT180 BKN250 04/03 A2993 RMK AC4CI2 SLP141

METAR Edmonton / Cooking Lake Airport - CEZ3

Edmonton / Cooking Lake Airport是Edmonton,加拿大中的小机场。 该机场有一条跑道: 10/28. 该领域的国际民航组织标志是CEZ3.

这份报告是针对2022年9月29日 05:00, 当地时间在Edmonton International Airport进行的。

机场观察

风向为180°,速度为4 kt。

可见度为20 mi。

有疏云,零星散落的云朵在18.000 ft的高度 和 碎云在25.000 ft的高度。 破损或更高的上限为25.000 ft。

温度为4 °C,阵风为1 °C。 露点为3 °C,相对湿度为93%。 海平面上的气压为29,93 inHg (QNH)。

白天

今天,太阳从07:31升起,在19:14降落。 这适用于Edmonton / Cooking Lake Airport,世界夏令时可能有所不同。 当地时间与世界标准时间之间的时差为-6 小时。 夏令时目前正在进行中。

公司介绍

我们没有关于这个机场的公司信息。

体会

到Vliegles.nl去找飞行课程,跳伞和其他飞行体验。 浏览页面,了解Edmonton / Cooking Lake Airport附近所有可用的活动。 你也可以使用搜索功能来寻找你所在地附近的特定飞行课程、跳伞或其他飞行体验。

跑道

Id 标题 侧风 逆风 侧风 %
10/28 100°-280° 4 kt 98 %

逆风成分最大的方向会被突出显示,并用于横风计算。 这并不一定意味着这个方向在使用。

乌云

18.000 ft SCT 疏云,零星散落的云朵
25.000 ft BKN 碎云

温度 & 天气

温度 4 °C
露点 3 °C
相对湿度 93%
风寒 1 °C
Kp-index 2 (0-9)

评论

SLP141海平面压力为29,95 inHg (29,95 inHg)
AC4CI2

白天

日出
07:33 (2h 03m)
中午
13:24
日落
19:16

小工具

你想在你的网站上有一个关于Edmonton / Cooking Lake Airport的当前航空天气(METAR)的小部件吗?

</> 显示HTML代码

我们和第三方通过cookies跟踪您在我们网站上的上网行为。如果您继续,我们认为您同意我们的cookie政策。 了解更多